Climatologie pour Saint-Brevin les Pins
Jour • Résumé pour février 9, 2017 Système :  Métrique    Anglais   Mixte
« - 1 jour
+ 1 jour »
Jour Semaine Mois Année Personnalisé
  Maximum : Minimum : Moyenne :
Température sous abri : 8.3 °C -2.1 °C 2.8 °C
Point de rosée : 4.8 °C -2.5 °C 1 °C
Humidité : 98 % 72 % 88 %
Vitesse du vent : 29.0 km/h 0.0 km/h 6.3 km/h
Rafale : 33.8 km/h - -
Direction :- - East
Pression : 1027.7 hPa 1017.2 hPa -
Précipitations : 0.3 mm    
Historical Graphs
 
 
Tableau de données pour février 9, 2017
Heure Tempé Pt rosée Pression Vent Vitesse Rafale Humidité Taux pluie (/hr) Soleil
00:00 0.7 °C 0.1 °C 1027.7 hPa Calm     96 % 0.0 mm 0 W/m2
00:05 0.4 °C -0.1 °C 1027.7 hPa Calm     96 % 0.0 mm 0 W/m2
00:10 0.2 °C -0.3 °C 1027.7 hPa Calm     96 % 0.0 mm 0 W/m2
00:15 0.1 °C -0.5 °C 1027.7 hPa Calm     96 % 0.0 mm 0 W/m2
00:20 0.0 °C -0.6 °C 1027.7 hPa Calm     96 % 0.0 mm 0 W/m2
00:25 0.0 °C -0.6 °C 1027.7 hPa Calm   1.6 km/h 96 % 0.0 mm 0 W/m2
00:30 0.0 °C -0.6 °C 1027.7 hPa Calm   1.6 km/h 96 % 0.0 mm 0 W/m2
00:35 0.1 °C -0.5 °C 1027.7 hPa Calm   1.6 km/h 96 % 0.0 mm 0 W/m2
00:40 -0.1 °C -0.6 °C 1027.7 hPa Calm     96 % 0.0 mm 0 W/m2
00:45 0.0 °C -0.4 °C 1027.3 hPa Calm     97 % 0.0 mm 0 W/m2
00:50 -0.1 °C -0.7 °C 1027.7 hPa Calm     96 % 0.0 mm 0 W/m2
00:55 -0.2 °C -0.7 °C 1027.7 hPa Calm     96 % 0.0 mm 0 W/m2
01:00 -0.3 °C -0.8 °C 1027.3 hPa Calm     96 % 0.0 mm 0 W/m2
01:05 -0.4 °C -1.0 °C 1027.3 hPa Calm     96 % 0.0 mm 0 W/m2
01:10 -0.6 °C -1.1 °C 1027.3 hPa Calm     96 % 0.0 mm 0 W/m2
01:15 -0.7 °C -1.3 °C 1027.3 hPa Calm     96 % 0.0 mm 0 W/m2
01:20 -0.8 °C -1.3 °C 1027.3 hPa Calm     96 % 0.0 mm 0 W/m2
01:25 -0.8 °C -1.3 °C 1027.3 hPa Calm     96 % 0.0 mm 0 W/m2
01:30 -0.8 °C -1.4 °C 1027.3 hPa Calm     96 % 0.0 mm 0 W/m2
01:35 -0.9 °C -1.5 °C 1027.3 hPa Calm     96 % 0.0 mm 0 W/m2
01:40 -1.0 °C -1.4 °C 1027.0 hPa Calm     97 % 0.0 mm 0 W/m2
01:45 -0.8 °C -1.2 °C 1027.0 hPa Calm   1.6 km/h 97 % 0.0 mm 0 W/m2
01:50 -0.7 °C -1.1 °C 1027.0 hPa Calm   1.6 km/h 97 % 0.0 mm 0 W/m2
01:55 -0.7 °C -1.1 °C 1027.0 hPa Calm     97 % 0.0 mm 0 W/m2
02:00 -0.8 °C -1.2 °C 1027.0 hPa Calm     97 % 0.0 mm 0 W/m2
02:05 -0.8 °C -1.2 °C 1027.0 hPa Calm     97 % 0.0 mm 0 W/m2
02:10 -0.9 °C -1.4 °C 1027.0 hPa Calm     97 % 0.0 mm 0 W/m2
02:15 -1.1 °C -1.6 °C 1027.0 hPa Calm     96 % 0.0 mm 0 W/m2
02:20 -1.2 °C -1.6 °C 1027.0 hPa Calm     97 % 0.0 mm 0 W/m2
02:25 -1.3 °C -1.7 °C 1026.6 hPa Calm     97 % 0.0 mm 0 W/m2
02:30 -1.3 °C -1.7 °C 1027.0 hPa Calm     97 % 0.0 mm 0 W/m2
02:35 -1.4 °C -1.8 °C 1027.0 hPa Calm     97 % 0.0 mm 0 W/m2
02:40 -1.4 °C -1.8 °C 1026.6 hPa Calm     97 % 0.0 mm 0 W/m2
02:45 -1.4 °C -1.9 °C 1026.6 hPa Calm     97 % 0.0 mm 0 W/m2
02:50 -1.4 °C -1.8 °C 1027.0 hPa Calm     97 % 0.0 mm 0 W/m2
02:55 -1.4 °C -1.8 °C 1027.0 hPa Calm     97 % 0.0 mm 0 W/m2
03:00 -1.4 °C -1.8 °C 1027.0 hPa Calm     97 % 0.0 mm 0 W/m2
03:05 -1.3 °C -1.7 °C 1026.6 hPa Calm     97 % 0.0 mm 0 W/m2
03:10 -1.3 °C -1.7 °C 1026.6 hPa Calm   1.6 km/h 97 % 0.0 mm 0 W/m2
03:15 -1.3 °C -1.7 °C 1026.6 hPa Calm   1.6 km/h 97 % 0.0 mm 0 W/m2
03:20 -1.4 °C -1.9 °C 1026.6 hPa Calm   1.6 km/h 97 % 0.0 mm 0 W/m2
03:25 -1.7 °C -2.3 °C 1026.6 hPa Calm     96 % 0.0 mm 0 W/m2
03:30 -1.7 °C -2.1 °C 1026.6 hPa Calm     97 % 0.0 mm 0 W/m2
03:35 -1.5 °C -1.9 °C 1026.6 hPa NNE 1.6 km/h 3.2 km/h 97 % 0.0 mm 0 W/m2
03:40 -1.3 °C -1.7 °C 1026.6 hPa NNE 3.2 km/h 4.8 km/h 97 % 0.0 mm 0 W/m2
03:45 -1.4 °C -1.8 °C 1026.3 hPa Calm   4.8 km/h 97 % 0.0 mm 0 W/m2
03:50 -1.4 °C -1.9 °C 1026.3 hPa Calm   3.2 km/h 97 % 0.0 mm 0 W/m2
03:55 -1.7 °C -2.2 °C 1026.3 hPa Calm     96 % 0.0 mm 0 W/m2
04:00 -1.5 °C -1.9 °C 1026.3 hPa NNE 4.8 km/h 4.8 km/h 97 % 0.0 mm 0 W/m2
04:05 -1.5 °C -1.9 °C 1026.3 hPa Calm   4.8 km/h 97 % 0.0 mm 0 W/m2
04:10 -1.5 °C -1.9 °C 1026.0 hPa Calm   4.8 km/h 97 % 0.0 mm 0 W/m2
04:20 -1.5 °C -1.9 °C 1026.0 hPa NE 3.2 km/h 4.8 km/h 97 % 0.0 mm 0 W/m2
04:25 -1.6 °C -2.0 °C 1026.0 hPa Calm   4.8 km/h 97 % 0.0 mm 0 W/m2
04:30 -1.6 °C -2.0 °C 1026.0 hPa Calm   3.2 km/h 97 % 0.0 mm 0 W/m2
04:35 -1.6 °C -2.0 °C 1026.0 hPa Calm   3.2 km/h 97 % 0.0 mm 0 W/m2
04:40 -1.6 °C -2.0 °C 1026.0 hPa Calm   3.2 km/h 97 % 0.0 mm 0 W/m2
04:45 -1.7 °C -2.1 °C 1026.0 hPa Calm     97 % 0.0 mm 0 W/m2
04:50 -1.8 °C -2.2 °C 1026.0 hPa Calm     97 % 0.0 mm 0 W/m2
04:55 -1.8 °C -2.2 °C 1026.0 hPa Calm     97 % 0.0 mm 0 W/m2
05:00 -1.8 °C -2.2 °C 1026.0 hPa Calm     97 % 0.0 mm 0 W/m2
05:05 -1.8 °C -2.2 °C 1026.0 hPa Calm     97 % 0.0 mm 0 W/m2
05:10 -1.8 °C -2.2 °C 1026.0 hPa Calm   1.6 km/h 97 % 0.0 mm 0 W/m2
05:15 -1.8 °C -2.2 °C 1025.6 hPa Calm   3.2 km/h 97 % 0.0 mm 0 W/m2
05:20 -1.9 °C -2.3 °C 1025.6 hPa Calm   3.2 km/h 97 % 0.0 mm 0 W/m2
05:25 -1.9 °C -2.4 °C 1025.6 hPa Calm   1.6 km/h 97 % 0.0 mm 0 W/m2
05:30 -1.8 °C -2.2 °C 1025.6 hPa Calm   1.6 km/h 97 % 0.0 mm 0 W/m2
05:35 -1.8 °C -2.2 °C 1025.6 hPa Calm   1.6 km/h 97 % 0.0 mm 0 W/m2
05:40 -1.9 °C -2.4 °C 1025.6 hPa Calm   1.6 km/h 97 % 0.0 mm 0 W/m2
05:45 -1.9 °C -2.4 °C 1025.6 hPa Calm     97 % 0.0 mm 0 W/m2
05:50 -2.0 °C -2.4 °C 1025.6 hPa Calm     97 % 0.0 mm 0 W/m2
06:00 -1.7 °C -2.1 °C 1025.6 hPa NE 1.6 km/h 1.6 km/h 97 % 0.0 mm 0 W/m2
06:05 -1.9 °C -2.4 °C 1025.6 hPa Calm   1.6 km/h 97 % 0.0 mm 0 W/m2
06:10 -1.9 °C -2.4 °C 1025.6 hPa Calm   3.2 km/h 97 % 0.0 mm 0 W/m2
06:15 -1.9 °C -2.3 °C 1025.3 hPa Calm   3.2 km/h 97 % 0.0 mm 0 W/m2
06:20 -1.8 °C -2.2 °C 1025.3 hPa NE 1.6 km/h 3.2 km/h 97 % 0.0 mm 0 W/m2
06:25 -1.6 °C -2.0 °C 1025.3 hPa Calm   3.2 km/h 97 % 0.0 mm 0 W/m2
06:30 -1.7 °C -2.1 °C 1025.3 hPa Calm   3.2 km/h 97 % 0.0 mm 0 W/m2
06:35 -1.7 °C -2.1 °C 1025.3 hPa NE 3.2 km/h 3.2 km/h 97 % 0.0 mm 0 W/m2
06:40 -1.9 °C -2.3 °C 1025.3 hPa NE 1.6 km/h 4.8 km/h 97 % 0.0 mm 0 W/m2
06:45 -2.1 °C -2.5 °C 1025.3 hPa NE 1.6 km/h 4.8 km/h 97 % 0.0 mm 0 W/m2
06:50 -2.0 °C -2.4 °C 1025.3 hPa NE 3.2 km/h 4.8 km/h 97 % 0.0 mm 0 W/m2
06:55 -1.9 °C -2.3 °C 1024.9 hPa NE 3.2 km/h 4.8 km/h 97 % 0.0 mm 0 W/m2
07:00 -1.6 °C -2.0 °C 1024.9 hPa NE 1.6 km/h 4.8 km/h 97 % 0.0 mm 0 W/m2
07:05 -1.4 °C -1.9 °C 1024.9 hPa NE 3.2 km/h 3.2 km/h 97 % 0.0 mm 0 W/m2
07:10 -1.3 °C -1.6 °C 1024.9 hPa NE 1.6 km/h 4.8 km/h 98 % 0.0 mm 0 W/m2
07:15 -1.2 °C -1.6 °C 1024.9 hPa Calm   4.8 km/h 97 % 0.0 mm 0 W/m2
07:20 -0.8 °C -1.1 °C 1024.9 hPa Calm   3.2 km/h 98 % 0.0 mm 0 W/m2
07:25 -0.8 °C -1.2 °C 1024.9 hPa Calm   3.2 km/h 97 % 0.0 mm 0 W/m2
07:30 -0.5 °C -0.8 °C 1024.9 hPa Calm   1.6 km/h 98 % 0.0 mm 0 W/m2
07:35 -0.3 °C -0.6 °C 1024.9 hPa Calm   1.6 km/h 98 % 0.0 mm 0 W/m2
07:40 -0.3 °C -0.8 °C 1024.9 hPa Calm     97 % 0.0 mm 0 W/m2
07:45 -0.2 °C -0.4 °C 1024.9 hPa Calm     98 % 0.0 mm 0 W/m2
07:50 -0.1 °C -0.4 °C 1024.9 hPa Calm   1.6 km/h 98 % 0.0 mm 0 W/m2
07:55 -0.1 °C -0.5 °C 1024.6 hPa Calm   3.2 km/h 97 % 0.0 mm 0 W/m2
08:00 0.0 °C -0.3 °C 1024.6 hPa NE 1.6 km/h 3.2 km/h 98 % 0.0 mm 0 W/m2
08:05 0.1 °C -0.2 °C 1024.6 hPa NE 3.2 km/h 4.8 km/h 98 % 0.0 mm 0 W/m2
08:10 0.3 °C 0.0 °C 1024.6 hPa NE 1.6 km/h 4.8 km/h 98 % 0.0 mm 0 W/m2
08:15 0.3 °C 0.1 °C 1024.6 hPa Calm   3.2 km/h 98 % 0.0 mm 0 W/m2
08:20 0.4 °C 0.1 °C 1024.6 hPa Calm   3.2 km/h 98 % 0.0 mm 0 W/m2
08:25 0.4 °C 0.1 °C 1024.6 hPa Calm   3.2 km/h 98 % 0.0 mm 0 W/m2
08:30 0.5 °C 0.2 °C 1024.6 hPa NE 1.6 km/h 3.2 km/h 98 % 0.0 mm 0 W/m2
08:35 0.6 °C 0.3 °C 1024.6 hPa ENE 3.2 km/h 4.8 km/h 98 % 0.0 mm 5 W/m2
08:40 0.7 °C 0.4 °C 1024.6 hPa East 3.2 km/h 4.8 km/h 98 % 0.0 mm 9 W/m2
08:45 0.8 °C 0.6 °C 1024.6 hPa East 3.2 km/h 4.8 km/h 98 % 0.0 mm 12 W/m2
08:50 1.1 °C 0.8 °C 1024.6 hPa Calm   6.4 km/h 98 % 0.0 mm 16 W/m2
08:55 1.2 °C 0.9 °C 1024.6 hPa ESE 3.2 km/h 6.4 km/h 98 % 0.0 mm 19 W/m2
09:00 1.3 °C 1.1 °C 1024.6 hPa East 4.8 km/h 6.4 km/h 98 % 0.0 mm 21 W/m2
09:05 1.5 °C 1.2 °C 1024.6 hPa ESE 3.2 km/h 8.0 km/h 98 % 0.0 mm 28 W/m2
09:10 1.6 °C 1.3 °C 1024.6 hPa ESE 8.0 km/h 8.0 km/h 98 % 0.0 mm 32 W/m2
09:15 1.7 °C 1.4 °C 1024.6 hPa ESE 3.2 km/h 9.7 km/h 98 % 0.0 mm 33 W/m2
09:20 1.8 °C 1.5 °C 1024.6 hPa Calm   9.7 km/h 98 % 0.0 mm 46 W/m2
09:25 2.0 °C 1.7 °C 1024.6 hPa ESE 1.6 km/h 9.7 km/h 98 % 0.0 mm 60 W/m2
09:30 2.1 °C 1.8 °C 1024.6 hPa East 3.2 km/h 9.7 km/h 98 % 0.0 mm 44 W/m2
09:35 2.2 °C 1.9 °C 1024.3 hPa ESE 3.2 km/h 9.7 km/h 98 % 0.0 mm 49 W/m2
09:40 2.3 °C 2.1 °C 1024.3 hPa ESE 4.8 km/h 9.7 km/h 98 % 0.0 mm 69 W/m2
09:45 2.5 °C 2.2 °C 1024.3 hPa East 1.6 km/h 9.7 km/h 98 % 0.0 mm 67 W/m2
09:50 2.6 °C 2.3 °C 1024.3 hPa East 1.6 km/h 8.0 km/h 98 % 0.0 mm 62 W/m2
09:55 2.7 °C 2.4 °C 1024.3 hPa ESE 8.0 km/h 8.0 km/h 98 % 0.0 mm 74 W/m2
10:00 2.9 °C 2.6 °C 1024.3 hPa East 4.8 km/h 8.0 km/h 98 % 0.0 mm 77 W/m2
10:05 3.0 °C 2.7 °C 1024.3 hPa East 8.0 km/h 9.7 km/h 98 % 0.0 mm 97 W/m2
10:10 3.2 °C 2.9 °C 1024.3 hPa ESE 8.0 km/h 11.3 km/h 98 % 0.0 mm 98 W/m2
10:15 3.3 °C 3.0 °C 1023.9 hPa ENE 6.4 km/h 11.3 km/h 98 % 0.0 mm 109 W/m2
10:20 3.5 °C 3.2 °C 1023.9 hPa ESE 4.8 km/h 11.3 km/h 98 % 0.0 mm 114 W/m2
10:25 3.7 °C 3.4 °C 1023.9 hPa ESE 4.8 km/h 12.9 km/h 98 % 0.0 mm 120 W/m2
10:30 3.7 °C 3.4 °C 1023.9 hPa ESE 4.8 km/h 19.3 km/h 98 % 0.0 mm 116 W/m2
10:35 3.7 °C 3.4 °C 1023.9 hPa ESE 9.7 km/h 19.3 km/h 98 % 0.0 mm 113 W/m2
10:40 3.8 °C 3.5 °C 1023.9 hPa SE 11.3 km/h 17.7 km/h 98 % 0.0 mm 127 W/m2
10:45 3.8 °C 3.5 °C 1023.9 hPa ESE 4.8 km/h 17.7 km/h 98 % 0.0 mm 155 W/m2
10:50 3.9 °C 3.5 °C 1023.9 hPa SSE 3.2 km/h 17.7 km/h 97 % 0.0 mm 144 W/m2
10:55 4.0 °C 3.6 °C 1023.6 hPa SE 11.3 km/h 17.7 km/h 97 % 0.0 mm 167 W/m2
11:00 4.2 °C 3.8 °C 1023.6 hPa SSE 11.3 km/h 16.1 km/h 97 % 0.0 mm 167 W/m2
11:05 4.3 °C 3.8 °C 1023.6 hPa ESE 4.8 km/h 19.3 km/h 97 % 0.0 mm 148 W/m2
11:10 4.3 °C 3.9 °C 1023.6 hPa ESE 6.4 km/h 19.3 km/h 97 % 0.0 mm 188 W/m2
11:15 4.4 °C 3.9 °C 1023.6 hPa SE 8.0 km/h 17.7 km/h 96 % 0.0 mm 214 W/m2
11:20 4.7 °C 4.1 °C 1023.2 hPa SSE 3.2 km/h 16.1 km/h 96 % 0.0 mm 353 W/m2
11:25 5.1 °C 4.4 °C 1023.2 hPa SE 12.9 km/h 16.1 km/h 95 % 0.0 mm 353 W/m2
11:30 5.4 °C 4.6 °C 1023.2 hPa SE 14.5 km/h 20.9 km/h 94 % 0.0 mm 369 W/m2
11:35 5.9 °C 4.8 °C 1023.2 hPa SSE 9.7 km/h 20.9 km/h 93 % 0.0 mm 387 W/m2
11:40 6.3 °C 4.8 °C 1023.2 hPa East 8.0 km/h 19.3 km/h 90 % 0.0 mm 381 W/m2
11:45 6.2 °C 4.2 °C 1023.2 hPa SE 14.5 km/h 20.9 km/h 87 % 0.0 mm 403 W/m2
11:50 6.2 °C 4.1 °C 1023.2 hPa ESE 16.1 km/h 22.5 km/h 86 % 0.0 mm 411 W/m2
11:55 6.6 °C 4.4 °C 1022.9 hPa ESE 6.4 km/h 22.5 km/h 86 % 0.0 mm 411 W/m2
12:00 6.8 °C 4.6 °C 1022.9 hPa ESE 11.3 km/h 20.9 km/h 86 % 0.0 mm 411 W/m2
12:05 6.7 °C 4.0 °C 1022.9 hPa East 11.3 km/h 24.1 km/h 83 % 0.0 mm 408 W/m2
12:10 6.8 °C 4.1 °C 1022.9 hPa ESE 6.4 km/h 24.1 km/h 83 % 0.0 mm 424 W/m2
12:15 6.8 °C 4.0 °C 1022.9 hPa ENE 8.0 km/h 20.9 km/h 82 % 0.0 mm 425 W/m2
12:20 7.2 °C 4.3 °C 1022.9 hPa SE 3.2 km/h 17.7 km/h 82 % 0.0 mm 413 W/m2
12:25 7.3 °C 4.4 °C 1022.9 hPa ESE 3.2 km/h 17.7 km/h 82 % 0.0 mm 436 W/m2
12:30 7.2 °C 4.0 °C 1022.6 hPa ESE 4.8 km/h 19.3 km/h 80 % 0.0 mm 439 W/m2
12:35 7.3 °C 4.3 °C 1022.6 hPa ESE 8.0 km/h 19.3 km/h 81 % 0.0 mm 452 W/m2
12:40 7.6 °C 4.4 °C 1022.6 hPa East 1.6 km/h 17.7 km/h 80 % 0.0 mm 480 W/m2
12:45 7.6 °C 4.4 °C 1022.6 hPa ESE 14.5 km/h 17.7 km/h 80 % 0.0 mm 489 W/m2
12:50 8.0 °C 4.8 °C 1022.6 hPa East 4.8 km/h 17.7 km/h 80 % 0.0 mm 496 W/m2
12:55 7.8 °C 4.2 °C 1022.6 hPa ENE 8.0 km/h 22.5 km/h 78 % 0.0 mm 401 W/m2
13:00 7.4 °C 4.0 °C 1022.6 hPa ESE 16.1 km/h 22.5 km/h 79 % 0.0 mm 469 W/m2
13:05 7.6 °C 4.2 °C 1022.2 hPa East 14.5 km/h 20.9 km/h 79 % 0.0 mm 506 W/m2
13:10 7.7 °C 4.1 °C 1022.2 hPa NE 8.0 km/h 17.7 km/h 78 % 0.0 mm 483 W/m2
13:15 8.1 °C 4.5 °C 1022.2 hPa South 8.0 km/h 16.1 km/h 78 % 0.0 mm 513 W/m2
13:20 8.3 °C 4.2 °C 1021.9 hPa East 12.9 km/h 20.9 km/h 75 % 0.0 mm 506 W/m2
13:25 7.9 °C 3.9 °C 1021.9 hPa East 9.7 km/h 20.9 km/h 76 % 0.0 mm 285 W/m2
13:35 7.9 °C 3.8 °C 1021.9 hPa ENE 6.4 km/h 22.5 km/h 75 % 0.0 mm 457 W/m2
13:40 8.2 °C 3.8 °C 1021.9 hPa ENE 6.4 km/h 17.7 km/h 74 % 0.3 mm 466 W/m2
13:50 8.2 °C 3.5 °C 1021.6 hPa ENE 8.0 km/h 20.9 km/h 72 % 0.3 mm 427 W/m2
13:55 8.1 °C 3.4 °C 1021.6 hPa ESE 14.5 km/h 20.9 km/h 72 % 0.3 mm 445 W/m2
14:00 7.9 °C 3.2 °C 1021.6 hPa East 17.7 km/h 24.1 km/h 72 % 0.3 mm 443 W/m2
14:10 7.9 °C 3.7 °C 1021.6 hPa ESE 16.1 km/h 17.7 km/h 75 % 0.3 mm 434 W/m2
14:15 8.1 °C 3.5 °C 1021.2 hPa ESE 11.3 km/h 16.1 km/h 73 % 0.3 mm 448 W/m2
14:20 8.2 °C 3.9 °C 1021.2 hPa East 9.7 km/h 17.7 km/h 74 % 0.3 mm 432 W/m2
14:25 8.2 °C 3.7 °C 1021.2 hPa East 11.3 km/h 17.7 km/h 73 % 0.3 mm 399 W/m2
14:30 8.1 °C 3.5 °C 1021.2 hPa SE 6.4 km/h 16.1 km/h 73 % 0.3 mm 406 W/m2
14:40 7.9 °C 3.4 °C 1020.9 hPa East 4.8 km/h 19.3 km/h 73 % 0.0 mm 374 W/m2
14:45 8.0 °C 3.5 °C 1020.9 hPa SE 16.1 km/h 20.9 km/h 73 % 0.0 mm 397 W/m2
14:55 7.9 °C 3.4 °C 1020.5 hPa SE 8.0 km/h 22.5 km/h 73 % 0.0 mm 390 W/m2
15:00 7.7 °C 3.0 °C 1020.5 hPa East 11.3 km/h 22.5 km/h 72 % 0.0 mm 388 W/m2
15:05 7.9 °C 3.5 °C 1020.5 hPa ENE 8.0 km/h 20.9 km/h 74 % 0.0 mm 359 W/m2
15:10 7.8 °C 3.3 °C 1020.5 hPa ESE 11.3 km/h 22.5 km/h 73 % 0.0 mm 362 W/m2
15:15 7.8 °C 3.2 °C 1020.2 hPa East 8.0 km/h 22.5 km/h 73 % 0.0 mm 364 W/m2
15:20 7.7 °C 3.0 °C 1020.2 hPa East 8.0 km/h 19.3 km/h 72 % 0.0 mm 350 W/m2
15:25 7.4 °C 2.9 °C 1020.5 hPa ENE 8.0 km/h 24.1 km/h 73 % 0.0 mm 327 W/m2
15:30 7.4 °C 2.9 °C 1020.2 hPa East 8.0 km/h 24.1 km/h 73 % 0.0 mm 327 W/m2
15:35 7.4 °C 2.9 °C 1020.2 hPa NE 6.4 km/h 19.3 km/h 73 % 0.0 mm 318 W/m2
15:40 7.5 °C 3.0 °C 1019.9 hPa ESE 14.5 km/h 25.7 km/h 73 % 0.0 mm 304 W/m2
15:45 7.5 °C 3.0 °C 1020.2 hPa ESE 12.9 km/h 25.7 km/h 73 % 0.0 mm 297 W/m2
15:50 7.4 °C 2.9 °C 1019.9 hPa ESE 8.0 km/h 22.5 km/h 73 % 0.0 mm 306 W/m2
15:55 7.3 °C 2.8 °C 1019.9 hPa East 14.5 km/h 22.5 km/h 73 % 0.0 mm 274 W/m2
16:00 7.2 °C 2.7 °C 1019.9 hPa East 11.3 km/h 25.7 km/h 73 % 0.0 mm 279 W/m2
16:05 7.2 °C 2.7 °C 1019.9 hPa East 12.9 km/h 25.7 km/h 73 % 0.0 mm 258 W/m2
16:10 7.0 °C 2.5 °C 1019.9 hPa East 14.5 km/h 22.5 km/h 73 % 0.0 mm 253 W/m2
16:15 6.9 °C 2.6 °C 1019.5 hPa East 14.5 km/h 25.7 km/h 74 % 0.0 mm 239 W/m2
16:20 6.9 °C 2.6 °C 1019.5 hPa East 14.5 km/h 25.7 km/h 74 % 0.0 mm 230 W/m2
16:25 6.9 °C 2.4 °C 1019.5 hPa ESE 11.3 km/h 24.1 km/h 73 % 0.0 mm 223 W/m2
16:30 7.0 °C 2.9 °C 1019.5 hPa East 9.7 km/h 22.5 km/h 75 % 0.0 mm 213 W/m2
16:35 6.8 °C 2.7 °C 1019.5 hPa East 8.0 km/h 25.7 km/h 75 % 0.0 mm 199 W/m2
16:40 6.7 °C 2.8 °C 1019.5 hPa East 9.7 km/h 25.7 km/h 76 % 0.0 mm 181 W/m2
16:45 6.4 °C 2.5 °C 1019.2 hPa SE 11.3 km/h 22.5 km/h 76 % 0.0 mm 116 W/m2
16:50 6.3 °C 2.5 °C 1019.2 hPa East 20.9 km/h 22.5 km/h 77 % 0.0 mm 139 W/m2
16:55 6.2 °C 2.5 °C 1019.2 hPa ESE 8.0 km/h 20.9 km/h 77 % 0.0 mm 79 W/m2
17:00 6.2 °C 2.4 °C 1019.2 hPa ENE 12.9 km/h 22.5 km/h 77 % 0.0 mm 53 W/m2
17:05 6.0 °C 2.3 °C 1019.2 hPa ESE 12.9 km/h 22.5 km/h 77 % 0.0 mm 56 W/m2
17:10 5.9 °C 2.3 °C 1019.2 hPa East 11.3 km/h 20.9 km/h 78 % 0.0 mm 53 W/m2
17:15 5.9 °C 2.3 °C 1018.8 hPa ESE 9.7 km/h 24.1 km/h 78 % 0.0 mm 47 W/m2
17:20 5.7 °C 2.2 °C 1018.8 hPa ESE 12.9 km/h 24.1 km/h 78 % 0.0 mm 44 W/m2
17:25 5.6 °C 2.3 °C 1019.2 hPa ESE 8.0 km/h 22.5 km/h 79 % 0.0 mm 42 W/m2
17:30 5.5 °C 2.1 °C 1019.2 hPa East 11.3 km/h 19.3 km/h 79 % 0.0 mm 42 W/m2
17:35 5.4 °C 2.2 °C 1018.8 hPa East 14.5 km/h 17.7 km/h 80 % 0.0 mm 35 W/m2
17:40 5.3 °C 2.1 °C 1018.8 hPa SE 8.0 km/h 16.1 km/h 80 % 0.0 mm 32 W/m2
17:45 5.2 °C 2.0 °C 1018.8 hPa East 6.4 km/h 16.1 km/h 80 % 0.0 mm 30 W/m2
17:50 5.0 °C 1.8 °C 1018.8 hPa East 14.5 km/h 17.7 km/h 80 % 0.0 mm 26 W/m2
17:55 4.8 °C 1.8 °C 1018.8 hPa East 12.9 km/h 22.5 km/h 81 % 0.0 mm 23 W/m2
18:00 4.7 °C 1.9 °C 1018.8 hPa East 4.8 km/h 22.5 km/h 82 % 0.0 mm 18 W/m2
18:05 4.5 °C 1.7 °C 1018.8 hPa East 6.4 km/h 14.5 km/h 82 % 0.0 mm 12 W/m2
18:10 4.3 °C 1.7 °C 1018.8 hPa East 4.8 km/h 14.5 km/h 83 % 0.0 mm 7 W/m2
18:15 4.2 °C 1.6 °C 1018.8 hPa East 3.2 km/h 17.7 km/h 83 % 0.0 mm 5 W/m2
18:20 4.2 °C 1.5 °C 1018.8 hPa East 9.7 km/h 24.1 km/h 83 % 0.0 mm 0 W/m2
18:25 4.0 °C 1.4 °C 1018.8 hPa ESE 8.0 km/h 24.1 km/h 83 % 0.0 mm 0 W/m2
18:30 3.9 °C 1.3 °C 1018.8 hPa ESE 6.4 km/h 19.3 km/h 83 % 0.0 mm 0 W/m2
18:35 3.8 °C 1.2 °C 1018.8 hPa NE 6.4 km/h 19.3 km/h 83 % 0.0 mm 0 W/m2
18:40 3.8 °C 1.3 °C 1018.8 hPa East 9.7 km/h 17.7 km/h 84 % 0.0 mm 0 W/m2
18:45 3.7 °C 1.2 °C 1018.8 hPa ENE 4.8 km/h 14.5 km/h 84 % 0.0 mm 0 W/m2
18:50 3.7 °C 1.3 °C 1018.8 hPa East 9.7 km/h 12.9 km/h 84 % 0.0 mm 0 W/m2
18:55 3.8 °C 1.3 °C 1018.8 hPa East 12.9 km/h 16.1 km/h 84 % 0.0 mm 0 W/m2
19:00 3.8 °C 1.4 °C 1018.8 hPa East 8.0 km/h 16.1 km/h 84 % 0.0 mm 0 W/m2
19:05 3.8 °C 1.3 °C 1018.8 hPa ESE 8.0 km/h 16.1 km/h 84 % 0.0 mm 0 W/m2
19:10 3.7 °C 1.2 °C 1018.8 hPa East 12.9 km/h 16.1 km/h 84 % 0.0 mm 0 W/m2
19:15 3.6 °C 1.1 °C 1018.8 hPa ESE 3.2 km/h 14.5 km/h 84 % 0.0 mm 0 W/m2
19:20 3.4 °C 1.2 °C 1018.8 hPa East 4.8 km/h 14.5 km/h 85 % 0.0 mm 0 W/m2
19:25 3.4 °C 1.1 °C 1018.8 hPa ENE 11.3 km/h 14.5 km/h 85 % 0.0 mm 0 W/m2
19:30 3.3 °C 1.0 °C 1018.8 hPa East 9.7 km/h 16.1 km/h 85 % 0.0 mm 0 W/m2
19:35 3.3 °C 1.1 °C 1018.5 hPa ESE 8.0 km/h 16.1 km/h 85 % 0.0 mm 0 W/m2
19:40 3.3 °C 1.1 °C 1018.5 hPa East 11.3 km/h 16.1 km/h 85 % 0.0 mm 0 W/m2
19:45 3.3 °C 1.1 °C 1018.5 hPa ESE 14.5 km/h 16.1 km/h 85 % 0.0 mm 0 W/m2
19:50 3.3 °C 1.1 °C 1018.5 hPa East 4.8 km/h 16.1 km/h 85 % 0.0 mm 0 W/m2
19:55 3.3 °C 0.9 °C 1018.8 hPa East 8.0 km/h 19.3 km/h 84 % 0.0 mm 0 W/m2
20:00 3.3 °C 0.9 °C 1018.8 hPa SE 4.8 km/h 20.9 km/h 84 % 0.0 mm 0 W/m2
20:05 3.3 °C 0.8 °C 1018.5 hPa SE 6.4 km/h 20.9 km/h 84 % 0.0 mm 0 W/m2
20:10 3.3 °C 0.8 °C 1018.5 hPa ESE 11.3 km/h 17.7 km/h 84 % 0.0 mm 0 W/m2
20:15 3.3 °C 0.7 °C 1018.5 hPa East 11.3 km/h 19.3 km/h 83 % 0.0 mm 0 W/m2
20:20 3.4 °C 0.8 °C 1018.5 hPa ESE 12.9 km/h 19.3 km/h 83 % 0.0 mm 0 W/m2
20:25 3.4 °C 0.8 °C 1018.5 hPa ENE 11.3 km/h 20.9 km/h 83 % 0.0 mm 0 W/m2
20:30 3.5 °C 0.9 °C 1018.5 hPa East 12.9 km/h 25.7 km/h 83 % 0.0 mm 0 W/m2
20:35 3.7 °C 0.9 °C 1018.5 hPa SE 12.9 km/h 29.0 km/h 82 % 0.0 mm 0 W/m2
20:40 3.7 °C 0.8 °C 1018.5 hPa ESE 14.5 km/h 29.0 km/h 81 % 0.0 mm 0 W/m2
20:45 3.7 °C 0.8 °C 1018.5 hPa ESE 11.3 km/h 24.1 km/h 81 % 0.0 mm 0 W/m2
20:50 3.7 °C 0.7 °C 1018.2 hPa East 9.7 km/h 17.7 km/h 81 % 0.0 mm 0 W/m2
20:55 3.5 °C 0.5 °C 1018.2 hPa East 4.8 km/h 19.3 km/h 81 % 0.0 mm 0 W/m2
21:00 3.4 °C 0.5 °C 1018.2 hPa ESE 6.4 km/h 20.9 km/h 81 % 0.0 mm 0 W/m2
21:05 3.4 °C 0.5 °C 1018.2 hPa SE 8.0 km/h 20.9 km/h 81 % 0.0 mm 0 W/m2
21:10 3.4 °C 0.5 °C 1018.2 hPa East 6.4 km/h 17.7 km/h 81 % 0.0 mm 0 W/m2
21:15 3.4 °C 0.7 °C 1018.2 hPa ESE 11.3 km/h 20.9 km/h 82 % 0.0 mm 0 W/m2
21:20 3.5 °C 0.7 °C 1018.2 hPa ESE 14.5 km/h 20.9 km/h 82 % 0.0 mm 0 W/m2
21:25 3.5 °C 0.7 °C 1017.8 hPa East 8.0 km/h 17.7 km/h 82 % 0.0 mm 0 W/m2
21:30 3.6 °C 0.8 °C 1017.8 hPa SE 6.4 km/h 22.5 km/h 82 % 0.0 mm 0 W/m2
21:35 3.7 °C 0.9 °C 1017.8 hPa ESE 17.7 km/h 22.5 km/h 82 % 0.0 mm 0 W/m2
21:40 3.9 °C 1.1 °C 1017.8 hPa ESE 12.9 km/h 20.9 km/h 82 % 0.0 mm 0 W/m2
21:45 4.1 °C 1.1 °C 1017.8 hPa East 25.7 km/h 25.7 km/h 81 % 0.0 mm 0 W/m2
21:50 4.2 °C 1.2 °C 1017.8 hPa East 6.4 km/h 27.4 km/h 81 % 0.0 mm 0 W/m2
21:55 4.3 °C 1.2 °C 1017.8 hPa East 16.1 km/h 27.4 km/h 80 % 0.0 mm 0 W/m2
22:00 4.4 °C 1.3 °C 1017.8 hPa SE 9.7 km/h 33.8 km/h 80 % 0.0 mm 0 W/m2
22:05 4.5 °C 1.3 °C 1017.8 hPa ESE 19.3 km/h 33.8 km/h 80 % 0.0 mm 0 W/m2
22:10 4.5 °C 1.3 °C 1017.8 hPa ESE 14.5 km/h 27.4 km/h 80 % 0.0 mm 0 W/m2
22:15 4.6 °C 1.4 °C 1017.8 hPa East 9.7 km/h 27.4 km/h 80 % 0.0 mm 0 W/m2
22:16 4.6 °C 1.4 °C 1017.8 hPa ESE 14.5 km/h 14.5 km/h 80 % 0.0 mm 0 W/m2
22:17 4.6 °C 1.4 °C 1017.8 hPa ESE 29.0 km/h 29.0 km/h 80 % 0.0 mm 0 W/m2
22:18 4.6 °C 1.4 °C 1017.8 hPa ESE 24.1 km/h 29.0 km/h 80 % 0.0 mm 0 W/m2
22:19 4.6 °C 1.4 °C 1017.8 hPa ESE 20.9 km/h 29.0 km/h 80 % 0.0 mm 0 W/m2
22:20 4.6 °C 1.4 °C 1017.8 hPa ESE 12.9 km/h 29.0 km/h 80 % 0.0 mm 0 W/m2
22:30 4.6 °C 1.4 °C 1017.8 hPa ESE 20.9 km/h 29.0 km/h 80 % 0.0 mm 0 W/m2
22:35 4.6 °C 1.7 °C 1017.5 hPa ESE 12.9 km/h 17.7 km/h 82 % 0.0 mm 0 W/m2
22:40 4.6 °C 1.7 °C 1017.5 hPa ESE 17.7 km/h 20.9 km/h 82 % 0.0 mm 0 W/m2
22:45 4.6 °C 1.7 °C 1017.5 hPa ESE 9.7 km/h 20.9 km/h 82 % 0.0 mm 0 W/m2
22:50 4.6 °C 1.7 °C 1017.5 hPa East 3.2 km/h 19.3 km/h 82 % 0.0 mm 0 W/m2
22:55 4.6 °C 1.8 °C 1017.5 hPa East 9.7 km/h 19.3 km/h 82 % 0.0 mm 0 W/m2
23:00 4.6 °C 1.8 °C 1017.5 hPa ENE 14.5 km/h 22.5 km/h 82 % 0.0 mm 0 W/m2
23:05 4.6 °C 1.8 °C 1017.5 hPa East 11.3 km/h 22.5 km/h 82 % 0.0 mm 0 W/m2
23:10 4.7 °C 1.9 °C 1017.5 hPa ESE 17.7 km/h 22.5 km/h 82 % 0.0 mm 0 W/m2
23:15 4.7 °C 1.9 °C 1017.5 hPa ESE 6.4 km/h 22.5 km/h 82 % 0.0 mm 0 W/m2
23:25 4.6 °C 1.9 °C 1017.2 hPa ESE 11.3 km/h 20.9 km/h 83 % 0.0 mm 0 W/m2
23:30 4.6 °C 1.9 °C 1017.2 hPa ESE 11.3 km/h 20.9 km/h 83 % 0.0 mm 0 W/m2
23:35 4.6 °C 1.9 °C 1017.2 hPa ESE 8.0 km/h 20.9 km/h 83 % 0.0 mm 0 W/m2
23:40 4.5 °C 1.9 °C 1017.2 hPa ESE 11.3 km/h 19.3 km/h 83 % 0.0 mm 0 W/m2
23:45 4.5 °C 2.0 °C 1017.2 hPa East 8.0 km/h 17.7 km/h 84 % 0.0 mm 0 W/m2
23:55 4.5 °C 2.0 °C 1017.2 hPa ESE 8.0 km/h 17.7 km/h 84 % 0.0 mm 0 W/m2
Avec l'autorisation de Weather Underground - 1.75 mb